Darstellungsparameter: Aktuell verwendete Einstellungen:
Skalierung der Graphiken ... ?
xyx+y,   Skalierungsfaktor:      Skalierung: Modus: x, Faktor: 1
Darstellungszeitraum ... ?
Vom - - bis: - -   Zeitraum: 14.11.2016 - 14.11.2016
Min/Max/Avg-Anzeige ... ?
Zeige MMA aktuell
Zeige MMA Monat
Zeige MMA alles
Zeige --A aktuell
Zeige --A Monat
Zeige --A alles
Keine MMA-Anzeige
MMA:
Keine MMA-Graphiken
MMA-Basis: 14.11.2016 - 14.11.2016
Quicknavigation für Darstellung... ?
Tage:      1T, 2T, 3T, 5T -1T -2T -3T -5T +1T +2T +3T +5T
Wochen: 1W, 2W, 3W -1W -2W -3W +1W +2W +3W
Monate: 1M, 3M, 6M -1M -3M -6M +1M +3M +6M
Jahre:    1J, 3J, 5J, 10J -1J -3J -5J -10J +1J +3J +5J +10J
Nutze für die Darstellung ... ?
Originaldaten oder Mittelwerte auf ...
Stundenbasis Tagesbasis Wochenbasis
Monatsbasis Jahresbasis      Datenbasis: Original-Daten
Darstellen als:
Statistik (Auto) Statistik J:M      Darstellung:
Zur Graphik,    zurück zur Übersicht aller Sensoren.
 
Tabellarische Datenbersicht: ?
 
Sensor: Nr:Datum:Temp:Feuchte:Taupunkt:
Aussen-T/F 1 14-11-2016 00:00:00 -0.6 C 94 % -1.44 C
2 14-11-2016 00:05:00 -0.7 C 94 % -1.54 C
3 14-11-2016 00:10:00 -0.7 C 94 % -1.54 C
4 14-11-2016 00:15:00 -0.7 C 94 % -1.54 C
5 14-11-2016 00:20:00 -0.8 C 94 % -1.64 C
6 14-11-2016 00:25:00 -0.8 C 94 % -1.64 C
7 14-11-2016 00:30:00 -0.8 C 94 % -1.64 C
8 14-11-2016 00:35:00 -0.8 C 94 % -1.64 C
9 14-11-2016 00:40:00 -0.8 C 94 % -1.64 C
10 14-11-2016 00:45:00 -0.8 C 94 % -1.64 C
11 14-11-2016 00:50:00 -0.8 C 94 % -1.64 C
12 14-11-2016 00:55:00 -0.8 C 95 % -1.5 C
13 14-11-2016 01:00:00 -0.8 C 94 % -1.64 C
14 14-11-2016 01:05:00 -0.8 C 95 % -1.5 C
15 14-11-2016 01:10:00 -0.9 C 95 % -1.6 C
16 14-11-2016 01:15:00 -0.9 C 95 % -1.6 C
17 14-11-2016 01:20:00 -0.9 C 95 % -1.6 C
18 14-11-2016 01:25:00 -1.1 C 95 % -1.8 C
19 14-11-2016 01:30:00 -1.2 C 94 % -2.04 C
20 14-11-2016 01:35:00 -1.2 C 94 % -2.04 C
21 14-11-2016 01:40:00 -1.2 C 95 % -1.9 C
22 14-11-2016 01:45:00 -1.2 C 95 % -1.9 C
23 14-11-2016 01:50:00 -1.2 C 95 % -1.9 C
24 14-11-2016 01:55:00 -1.2 C 95 % -1.9 C
25 14-11-2016 02:00:00 -1.2 C 95 % -1.9 C
Sensor: Nr:Datum:Temp:Feuchte:Taupunkt:
Aussen-T/F 26 14-11-2016 02:05:00 -1.3 C 95 % -2 C
27 14-11-2016 02:10:00 -1.3 C 95 % -2 C
28 14-11-2016 02:15:00 -1.4 C 95 % -2.1 C
29 14-11-2016 02:20:00 -1.4 C 95 % -2.1 C
30 14-11-2016 02:25:00 -1.4 C 95 % -2.1 C
31 14-11-2016 02:30:00 -1.4 C 95 % -2.1 C
32 14-11-2016 02:35:00 -1.5 C 95 % -2.19 C
33 14-11-2016 02:40:00 -1.6 C 95 % -2.29 C
34 14-11-2016 02:45:00 -1.6 C 95 % -2.29 C
35 14-11-2016 02:50:00 -1.6 C 95 % -2.29 C
36 14-11-2016 02:55:00 -1.7 C 95 % -2.39 C
37 14-11-2016 03:00:00 -1.7 C 95 % -2.39 C
38 14-11-2016 03:05:00 -1.7 C 95 % -2.39 C
39 14-11-2016 03:10:00 -1.8 C 95 % -2.49 C
40 14-11-2016 03:15:00 -1.8 C 95 % -2.49 C
41 14-11-2016 03:20:00 -1.8 C 95 % -2.49 C
42 14-11-2016 03:25:00 -1.8 C 95 % -2.49 C
43 14-11-2016 03:30:00 -1.8 C 95 % -2.49 C
44 14-11-2016 03:35:00 -1.8 C 95 % -2.49 C
45 14-11-2016 03:40:00 -1.8 C 95 % -2.49 C
46 14-11-2016 03:45:00 -1.8 C 95 % -2.49 C
47 14-11-2016 03:50:00 -1.8 C 95 % -2.49 C
48 14-11-2016 03:55:00 -1.8 C 95 % -2.49 C
49 14-11-2016 04:00:00 -1.9 C 95 % -2.59 C
50 14-11-2016 04:05:00 -1.9 C 95 % -2.59 C
Sensor: Nr:Datum:Temp:Feuchte:Taupunkt:
Aussen-T/F 51 14-11-2016 04:10:00 -1.9 C 95 % -2.59 C
52 14-11-2016 04:15:00 -1.9 C 95 % -2.59 C
53 14-11-2016 04:20:00 -1.9 C 95 % -2.59 C
54 14-11-2016 04:25:00 -2 C 95 % -2.69 C
55 14-11-2016 04:30:00 -2 C 95 % -2.69 C
56 14-11-2016 04:35:00 -2.1 C 95 % -2.79 C
57 14-11-2016 04:40:00 -2.1 C 95 % -2.79 C
58 14-11-2016 04:45:00 -2.1 C 95 % -2.79 C
59 14-11-2016 04:50:00 -2.2 C 95 % -2.89 C
60 14-11-2016 04:55:00 -2.2 C 95 % -2.89 C
61 14-11-2016 05:00:00 -2.2 C 95 % -2.89 C
62 14-11-2016 05:05:00 -2.2 C 95 % -2.89 C
63 14-11-2016 05:10:00 -2.3 C 95 % -2.99 C
64 14-11-2016 05:15:00 -2.3 C 95 % -2.99 C
65 14-11-2016 05:20:00 -2.3 C 95 % -2.99 C
66 14-11-2016 05:25:00 -2.4 C 95 % -3.09 C
67 14-11-2016 05:30:00 -2.4 C 95 % -3.09 C
68 14-11-2016 05:35:00 -2.4 C 95 % -3.09 C
69 14-11-2016 05:40:00 -2.5 C 95 % -3.19 C
70 14-11-2016 05:45:00 -2.6 C 95 % -3.29 C
71 14-11-2016 05:50:00 -2.7 C 95 % -3.39 C
72 14-11-2016 05:55:00 -2.7 C 95 % -3.39 C
73 14-11-2016 06:00:00 -2.7 C 95 % -3.39 C
74 14-11-2016 06:05:00 -2.7 C 95 % -3.39 C
75 14-11-2016 06:10:00 -2.7 C 95 % -3.39 C
Sensor: Nr:Datum:Temp:Feuchte:Taupunkt:
Aussen-T/F 76 14-11-2016 06:15:00 -2.7 C 95 % -3.39 C
77 14-11-2016 06:20:00 -2.7 C 95 % -3.39 C
78 14-11-2016 06:25:00 -2.8 C 95 % -3.49 C
79 14-11-2016 06:30:00 -2.8 C 95 % -3.49 C
80 14-11-2016 06:35:00 -2.8 C 95 % -3.49 C
81 14-11-2016 06:40:00 -2.8 C 95 % -3.49 C
82 14-11-2016 06:45:00 -2.9 C 95 % -3.59 C
83 14-11-2016 06:50:00 -2.9 C 95 % -3.59 C
84 14-11-2016 06:55:00 -2.9 C 95 % -3.59 C
85 14-11-2016 07:00:00 -2.9 C 95 % -3.59 C
86 14-11-2016 07:05:00 -3 C 95 % -3.69 C
87 14-11-2016 07:10:00 -3 C 95 % -3.69 C
88 14-11-2016 07:15:00 -3.1 C 95 % -3.79 C
89 14-11-2016 07:20:00 -3.1 C 95 % -3.79 C
90 14-11-2016 07:25:00 -3.1 C 95 % -3.79 C
91 14-11-2016 07:30:00 -3.2 C 95 % -3.88 C
92 14-11-2016 07:35:00 -3.2 C 95 % -3.88 C
93 14-11-2016 07:40:00 -3.2 C 95 % -3.88 C
94 14-11-2016 07:45:00 -3.2 C 95 % -3.88 C
95 14-11-2016 07:50:00 -3.2 C 95 % -3.88 C
96 14-11-2016 07:55:00 -3.2 C 95 % -3.88 C
97 14-11-2016 08:00:00 -3.2 C 95 % -3.88 C
98 14-11-2016 08:05:00 -3.2 C 95 % -3.88 C
99 14-11-2016 08:10:00 -3.2 C 95 % -3.88 C
100 14-11-2016 08:15:00 -3.2 C 95 % -3.88 C
Sensor: Nr:Datum:Temp:Feuchte:Taupunkt:
Aussen-T/F 101 14-11-2016 08:20:00 -3.2 C 95 % -3.88 C
102 14-11-2016 08:25:00 -3.2 C 95 % -3.88 C
103 14-11-2016 08:30:00 -3.2 C 95 % -3.88 C
104 14-11-2016 08:35:00 -3.1 C 95 % -3.79 C
105 14-11-2016 08:40:00 -3.1 C 95 % -3.79 C
106 14-11-2016 08:45:00 -3.1 C 95 % -3.79 C
107 14-11-2016 08:50:00 -3.1 C 95 % -3.79 C
108 14-11-2016 08:55:00 -3 C 96 % -3.55 C
109 14-11-2016 09:00:00 -3 C 95 % -3.69 C
110 14-11-2016 09:05:00 -2.9 C 95 % -3.59 C
111 14-11-2016 09:10:00 -2.9 C 95 % -3.59 C
112 14-11-2016 09:15:00 -2.9 C 95 % -3.59 C
113 14-11-2016 09:20:00 -2.8 C 96 % -3.35 C
114 14-11-2016 09:25:00 -2.8 C 96 % -3.35 C
115 14-11-2016 09:30:00 -2.7 C 96 % -3.25 C
116 14-11-2016 09:35:00 -2.7 C 96 % -3.25 C
117 14-11-2016 09:40:00 -2.6 C 96 % -3.15 C
118 14-11-2016 09:45:00 -2.5 C 96 % -3.05 C
119 14-11-2016 09:50:00 -2.4 C 96 % -2.95 C
120 14-11-2016 09:55:00 -2.3 C 96 % -2.85 C
121 14-11-2016 10:00:00 -2.2 C 96 % -2.75 C
122 14-11-2016 10:05:00 -2.2 C 96 % -2.75 C
123 14-11-2016 10:10:00 -2.1 C 96 % -2.65 C
124 14-11-2016 10:15:00 -1.9 C 96 % -2.45 C
125 14-11-2016 10:20:00 -1.8 C 96 % -2.35 C
Sensor: Nr:Datum:Temp:Feuchte:Taupunkt:
Aussen-T/F 126 14-11-2016 10:25:00 -1.8 C 96 % -2.35 C
127 14-11-2016 10:30:00 -1.8 C 96 % -2.35 C
128 14-11-2016 10:35:00 -1.7 C 96 % -2.25 C
129 14-11-2016 10:40:00 -1.6 C 96 % -2.15 C
130 14-11-2016 10:45:00 -1.5 C 96 % -2.05 C
131 14-11-2016 10:50:00 -1.4 C 96 % -1.95 C
132 14-11-2016 10:55:00 -1.4 C 96 % -1.95 C
133 14-11-2016 11:00:00 -1.3 C 96 % -1.85 C
134 14-11-2016 11:05:00 -1.3 C 96 % -1.85 C
135 14-11-2016 11:10:00 -1.2 C 96 % -1.75 C
136 14-11-2016 11:15:00 -1.2 C 96 % -1.75 C
137 14-11-2016 11:20:00 -1.2 C 95 % -1.9 C
138 14-11-2016 11:25:00 -1.1 C 95 % -1.8 C
139 14-11-2016 11:30:00 -1.1 C 95 % -1.8 C
140 14-11-2016 11:35:00 -1.1 C 95 % -1.8 C
141 14-11-2016 11:40:00 -1 C 95 % -1.7 C
142 14-11-2016 11:45:00 -1 C 95 % -1.7 C
143 14-11-2016 11:50:00 -0.9 C 95 % -1.6 C
144 14-11-2016 11:55:00 -0.9 C 95 % -1.6 C
145 14-11-2016 12:00:00 -0.8 C 95 % -1.5 C
146 14-11-2016 12:05:00 -0.7 C 95 % -1.4 C
147 14-11-2016 12:10:00 -0.7 C 95 % -1.4 C
148 14-11-2016 12:15:00 -0.6 C 95 % -1.3 C
149 14-11-2016 12:20:00 -0.6 C 95 % -1.3 C
150 14-11-2016 12:25:00 -0.4 C 95 % -1.1 C
Sensor: Nr:Datum:Temp:Feuchte:Taupunkt:
Aussen-T/F 151 14-11-2016 12:30:00 -0.3 C 95 % -1 C
152 14-11-2016 12:35:00 -0.3 C 95 % -1 C
153 14-11-2016 12:40:00 -0.2 C 95 % -0.9 C
154 14-11-2016 12:45:00 -0.2 C 95 % -0.9 C
155 14-11-2016 12:50:00 -0.1 C 95 % -0.8 C
156 14-11-2016 12:55:00 0 C 95 % -0.7 C
157 14-11-2016 13:00:00 0.1 C 95 % -0.6 C
158 14-11-2016 13:05:00 0.2 C 94 % -0.65 C
159 14-11-2016 13:10:00 0.2 C 94 % -0.65 C
160 14-11-2016 13:15:00 0.3 C 94 % -0.55 C
161 14-11-2016 13:20:00 0.4 C 94 % -0.45 C
162 14-11-2016 13:25:00 0.4 C 94 % -0.45 C
163 14-11-2016 13:30:00 0.5 C 94 % -0.35 C
164 14-11-2016 13:35:00 0.6 C 94 % -0.25 C
165 14-11-2016 13:40:00 0.7 C 94 % -0.15 C
166 14-11-2016 13:45:00 0.7 C 94 % -0.15 C
167 14-11-2016 13:50:00 0.8 C 94 % -0.05 C
168 14-11-2016 13:55:00 0.8 C 93 % -0.2 C
169 14-11-2016 14:00:00 0.9 C 93 % -0.1 C
170 14-11-2016 14:05:00 1 C 93 % 0 C
171 14-11-2016 14:10:00 1.1 C 93 % 0.1 C
172 14-11-2016 14:15:00 1.2 C 93 % 0.2 C
173 14-11-2016 14:20:00 1.2 C 93 % 0.2 C
174 14-11-2016 14:25:00 1.3 C 93 % 0.3 C
175 14-11-2016 14:30:00 1.3 C 93 % 0.3 C
Sensor: Nr:Datum:Temp:Feuchte:Taupunkt:
Aussen-T/F 176 14-11-2016 14:35:00 1.4 C 93 % 0.4 C
177 14-11-2016 14:40:00 1.4 C 93 % 0.4 C
178 14-11-2016 14:45:00 1.4 C 92 % 0.25 C
179 14-11-2016 14:50:00 1.5 C 93 % 0.49 C
180 14-11-2016 14:55:00 1.6 C 93 % 0.59 C
181 14-11-2016 15:00:00 1.6 C 93 % 0.59 C
182 14-11-2016 15:05:00 1.6 C 92 % 0.44 C
183 14-11-2016 15:10:00 1.6 C 92 % 0.44 C
184 14-11-2016 15:15:00 1.6 C 92 % 0.44 C
185 14-11-2016 15:20:00 1.5 C 92 % 0.35 C
186 14-11-2016 15:25:00 1.5 C 92 % 0.35 C
187 14-11-2016 15:30:00 1.5 C 92 % 0.35 C
188 14-11-2016 15:35:00 1.5 C 92 % 0.35 C
189 14-11-2016 15:40:00 1.5 C 92 % 0.35 C
190 14-11-2016 15:45:00 1.5 C 92 % 0.35 C
191 14-11-2016 15:50:00 1.6 C 92 % 0.44 C
192 14-11-2016 15:55:00 1.6 C 92 % 0.44 C
193 14-11-2016 16:00:00 1.6 C 92 % 0.44 C
194 14-11-2016 16:05:00 1.7 C 92 % 0.54 C
195 14-11-2016 16:10:00 1.7 C 92 % 0.54 C
196 14-11-2016 16:15:00 1.7 C 92 % 0.54 C
197 14-11-2016 16:20:00 1.7 C 92 % 0.54 C
198 14-11-2016 16:25:00 1.7 C 92 % 0.54 C
199 14-11-2016 16:30:00 1.7 C 91 % 0.39 C
200 14-11-2016 16:35:00 1.7 C 91 % 0.39 C
Sensor: Nr:Datum:Temp:Feuchte:Taupunkt:
Aussen-T/F 201 14-11-2016 16:40:00 1.7 C 91 % 0.39 C
202 14-11-2016 16:45:00 1.6 C 90 % 0.14 C
203 14-11-2016 16:50:00 1.6 C 89 % -0.01 C
204 14-11-2016 16:55:00 1.5 C 89 % -0.11 C
205 14-11-2016 17:00:00 1.4 C 89 % -0.21 C
206 14-11-2016 17:05:00 1.3 C 89 % -0.31 C
207 14-11-2016 17:10:00 1.3 C 90 % -0.15 C
208 14-11-2016 17:15:00 1.2 C 90 % -0.25 C
209 14-11-2016 17:20:00 1.2 C 90 % -0.25 C
210 14-11-2016 17:25:00 1.2 C 90 % -0.25 C
211 14-11-2016 17:30:00 1.2 C 90 % -0.25 C
212 14-11-2016 17:35:00 1.2 C 90 % -0.25 C
213 14-11-2016 17:40:00 1.2 C 89 % -0.41 C
214 14-11-2016 17:45:00 1.2 C 88 % -0.56 C
215 14-11-2016 17:50:00 1.2 C 87 % -0.72 C
216 14-11-2016 17:55:00 1.3 C 87 % -0.62 C
217 14-11-2016 18:00:00 1.3 C 87 % -0.62 C
218 14-11-2016 18:05:00 1.3 C 87 % -0.62 C
219 14-11-2016 18:10:00 1.3 C 87 % -0.62 C
220 14-11-2016 18:15:00 1.3 C 86 % -0.78 C
221 14-11-2016 18:20:00 1.3 C 87 % -0.62 C
222 14-11-2016 18:25:00 1.3 C 87 % -0.62 C
223 14-11-2016 18:30:00 1.3 C 87 % -0.62 C
224 14-11-2016 18:35:00 1.3 C 88 % -0.46 C
225 14-11-2016 18:40:00 1.3 C 87 % -0.62 C
Sensor: Nr:Datum:Temp:Feuchte:Taupunkt:
Aussen-T/F 226 14-11-2016 18:45:00 1.3 C 87 % -0.62 C
227 14-11-2016 18:50:00 1.3 C 87 % -0.62 C
228 14-11-2016 18:55:00 1.3 C 88 % -0.46 C
229 14-11-2016 19:00:00 1.3 C 88 % -0.46 C
230 14-11-2016 19:05:00 1.3 C 88 % -0.46 C
231 14-11-2016 19:10:00 1.3 C 88 % -0.46 C
232 14-11-2016 19:15:00 1.3 C 88 % -0.46 C
233 14-11-2016 19:20:00 1.3 C 87 % -0.62 C
234 14-11-2016 19:25:00 1.3 C 88 % -0.46 C
235 14-11-2016 19:30:00 1.3 C 88 % -0.46 C
236 14-11-2016 19:35:00 1.3 C 88 % -0.46 C
237 14-11-2016 19:40:00 1.3 C 88 % -0.46 C
238 14-11-2016 19:45:00 1.4 C 89 % -0.21 C
239 14-11-2016 19:50:00 1.4 C 89 % -0.21 C
240 14-11-2016 19:55:00 1.4 C 89 % -0.21 C
241 14-11-2016 20:00:00 1.4 C 89 % -0.21 C
242 14-11-2016 20:05:00 1.4 C 90 % -0.06 C
243 14-11-2016 20:10:00 1.4 C 90 % -0.06 C
244 14-11-2016 20:15:00 1.4 C 90 % -0.06 C
245 14-11-2016 20:20:00 1.4 C 90 % -0.06 C
246 14-11-2016 20:25:00 1.4 C 90 % -0.06 C
247 14-11-2016 20:30:00 1.4 C 91 % 0.1 C
248 14-11-2016 20:35:00 1.4 C 91 % 0.1 C
249 14-11-2016 20:40:00 1.4 C 91 % 0.1 C
250 14-11-2016 20:45:00 1.4 C 91 % 0.1 C
Sensor: Nr:Datum:Temp:Feuchte:Taupunkt:
Aussen-T/F 251 14-11-2016 20:50:00 1.4 C 91 % 0.1 C
252 14-11-2016 20:55:00 1.4 C 91 % 0.1 C
253 14-11-2016 21:00:00 1.4 C 91 % 0.1 C
254 14-11-2016 21:05:00 1.4 C 91 % 0.1 C
255 14-11-2016 21:10:00 1.4 C 91 % 0.1 C
256 14-11-2016 21:15:00 1.5 C 91 % 0.19 C
257 14-11-2016 21:20:00 1.5 C 91 % 0.19 C
258 14-11-2016 21:25:00 1.5 C 91 % 0.19 C
259 14-11-2016 21:30:00 1.5 C 91 % 0.19 C
260 14-11-2016 21:35:00 1.5 C 91 % 0.19 C
261 14-11-2016 21:40:00 1.5 C 91 % 0.19 C
262 14-11-2016 21:45:00 1.5 C 91 % 0.19 C
263 14-11-2016 21:50:00 1.5 C 91 % 0.19 C
264 14-11-2016 21:55:00 1.5 C 91 % 0.19 C
265 14-11-2016 22:00:00 1.5 C 91 % 0.19 C
266 14-11-2016 22:05:00 1.5 C 91 % 0.19 C
267 14-11-2016 22:10:00 1.6 C 91 % 0.29 C
268 14-11-2016 22:15:00 1.6 C 91 % 0.29 C
269 14-11-2016 22:20:00 1.7 C 91 % 0.39 C
270 14-11-2016 22:25:00 1.7 C 91 % 0.39 C
271 14-11-2016 22:30:00 1.7 C 91 % 0.39 C
272 14-11-2016 22:35:00 1.7 C 91 % 0.39 C
273 14-11-2016 22:40:00 1.7 C 91 % 0.39 C
274 14-11-2016 22:45:00 1.7 C 91 % 0.39 C
275 14-11-2016 22:50:00 1.8 C 91 % 0.49 C
Sensor: Nr:Datum:Temp:Feuchte:Taupunkt:
Aussen-T/F 276 14-11-2016 22:55:00 1.8 C 91 % 0.49 C
277 14-11-2016 23:00:00 1.8 C 91 % 0.49 C
278 14-11-2016 23:05:00 1.8 C 91 % 0.49 C
279 14-11-2016 23:10:00 1.8 C 91 % 0.49 C
280 14-11-2016 23:15:00 1.8 C 91 % 0.49 C
281 14-11-2016 23:20:00 1.8 C 91 % 0.49 C
282 14-11-2016 23:25:00 1.9 C 92 % 0.74 C
283 14-11-2016 23:30:00 1.9 C 92 % 0.74 C
284 14-11-2016 23:35:00 1.9 C 92 % 0.74 C
285 14-11-2016 23:40:00 1.9 C 92 % 0.74 C
286 14-11-2016 23:45:00 1.9 C 91 % 0.59 C
287 14-11-2016 23:50:00 2.1 C 90 % 0.64 C
288 14-11-2016 23:55:00 2.2 C 90 % 0.73 C

Legende:
   Min
   Max


Maximal/Minimal-Werte vom 14.11.2016 - 14.11.2016

Sensor Min Max Avg
Temp
(Aussen-T/F)
-3.2 °C
14-11-2016  07:30:00
2.2 °C
14-11-2016  23:55:00
-0.39 °C
Feuchte
(Aussen-T/F)
86 %
14-11-2016  18:15:00
96 %
14-11-2016  08:55:00
93.08 %
Taupunkt
(Aussen-T/F)
-3.88 C
14-11-2016  07:30:00
0.74 C
14-11-2016  23:25:00
-1.37 C

Die Daten stammen von einer Davis Vantage Pro 2 Wetter-Station und werden unter Linux mit der Software wview2wettercgi und aufbereitet. Alle Angaben erfolgen ohne Gewähr für ihre Vollständigkeit oder Richtigkeit.
Kontakt: Rainer Krienke krienke@uni-koblenz.de . Meine Webseiten an der Uni Koblenz oder privat.
Version: $Revision: 0.78 $